LF3951 weather

Doucier ULM
Bourgogne-Franche-Comté, France

Public forecast

Using degrees Celsius for public forecast. Weather courtesy of forecast.io.

Closest aviation weather report (METAR) to Doucier ULM

Closest report is Dole-Tavaux Airport, 26.4 nm (48.9 km) NNW. Retrieved 2019/11/12 02:30 UTC (28 minutes ago):

LFGJ 120230Z AUTO 18007KT CAVOK 01/01 Q1011

Closest aviation forecast (TAF) to Doucier ULM

Closest forecast is Geneva Cointrin International Airport, 29.3 nm (54.3 km) SSE. Retrieved 2019-11-12 03:33 UTC (0 seconds ago):

TAF TAF LSGG 120225Z 1203/1309 25005KT 9999 FEW045 TX09/1214Z TN02/1206Z TN01/1306Z